Time;durP1;ratioP1;P1;durP2;ratioP2;P2;SDS_P1;SDS_P2;PMS_P1;PMS_P2;Temp;Humidity;BMP_temperature;BMP_pressure;BME280_temperature;BME280_humidity;BME280_pressure;Samples;Min_cycle;Max_cycle;Signal;HPM_P1;HPM_P2
2021/03/30 00:02:01;;;;;;;8.77;3.88;;;;;;;3.10;34.71;100672.00;10585633;28;20048;-51
2021/03/30 00:07:03;;;;;;;8.80;3.90;;;;;;;3.07;34.51;100661.72;10592710;28;20104;-53
2021/03/30 00:12:06;;;;;;;7.70;3.53;;;;;;;3.06;34.88;100677.41;10592677;28;20051;-53
2021/03/30 00:17:08;;;;;;;8.33;3.40;;;;;;;3.05;34.71;100676.56;10592284;28;20063;-51
2021/03/30 00:22:10;;;;;;;10.50;4.65;;;;;;;3.01;34.69;100669.75;10592259;28;20384;-52
2021/03/30 00:27:11;;;;;;;9.35;4.18;;;;;;;2.97;35.16;100661.25;10592151;28;20132;-58
2021/03/30 00:32:14;;;;;;;8.85;4.20;;;;;;;2.93;35.08;100662.28;10594625;28;20120;-55
2021/03/30 00:37:16;;;;;;;9.80;4.22;;;;;;;2.91;35.51;100671.03;10599168;28;20051;-51
2021/03/30 00:42:18;;;;;;;10.80;4.45;;;;;;;2.85;35.89;100666.91;10594595;28;20044;-52
2021/03/30 00:47:21;;;;;;;9.05;4.00;;;;;;;2.80;35.60;100667.97;10612380;27;20051;-53
2021/03/30 00:52:23;;;;;;;11.10;4.68;;;;;;;2.80;36.25;100662.78;10635680;27;20460;-51
2021/03/30 00:57:44;;;;;;;10.65;4.13;;;;;;;2.76;35.83;100662.91;10635077;27;20523;-51
2021/03/30 01:02:46;;;;;;;9.60;4.43;;;;;;;2.73;36.14;100656.97;10633665;27;20042;-51
2021/03/30 01:08:06;;;;;;;8.45;4.28;;;;;;;2.69;36.33;100658.84;10632948;27;20448;-50
2021/03/30 01:13:33;;;;;;;9.93;4.65;;;;;;;2.66;36.61;100664.16;10635558;27;20054;-52
2021/03/30 01:18:40;;;;;;;10.68;5.28;;;;;;;2.63;37.03;100661.69;10634002;27;20054;-55
2021/03/30 01:23:56;;;;;;;10.18;4.75;;;;;;;2.56;37.56;100659.38;10632406;27;20043;-51
2021/03/30 01:29:18;;;;;;;10.88;4.55;;;;;;;2.53;37.31;100649.94;10632514;27;20074;-51
2021/03/30 01:34:22;;;;;;;12.02;5.47;;;;;;;2.51;37.37;100651.75;10636967;27;20055;-53
2021/03/30 01:39:25;;;;;;;12.25;5.32;;;;;;;2.51;37.04;100651.75;10592462;28;20062;-50
2021/03/30 01:44:48;;;;;;;12.23;4.60;;;;;;;2.49;36.99;100640.56;10589456;28;20048;-51
2021/03/30 01:49:51;;;;;;;13.00;5.20;;;;;;;2.47;37.08;100639.78;10624761;27;20051;-51
2021/03/30 01:54:53;;;;;;;14.38;5.78;;;;;;;2.44;37.40;100634.72;10630684;27;20053;-50
2021/03/30 01:59:58;;;;;;;9.88;5.05;;;;;;;2.38;37.55;100634.94;10612576;27;20058;-53
2021/03/30 02:05:01;;;;;;;13.40;5.05;;;;;;;2.33;37.41;100644.63;10588943;28;20089;-50
2021/03/30 02:10:10;;;;;;;11.00;6.00;;;;;;;2.29;37.10;100636.97;10589765;28;20039;-51
2021/03/30 02:15:13;;;;;;;14.95;5.32;;;;;;;2.26;37.47;100639.66;10587461;28;20433;-51
2021/03/30 02:20:20;;;;;;;13.40;5.55;;;;;;;2.25;37.52;100637.97;10588150;28;20121;-53
2021/03/30 02:25:23;;;;;;;14.13;5.85;;;;;;;2.22;37.94;100632.06;10587709;27;20403;-53
2021/03/30 02:30:27;;;;;;;11.65;5.07;;;;;;;2.15;38.50;100636.59;10588940;28;20058;-53
2021/03/30 02:35:30;;;;;;;15.68;5.45;;;;;;;2.13;38.31;100632.38;10591858;28;20056;-50
2021/03/30 02:40:32;;;;;;;15.02;6.53;;;;;;;2.13;38.53;100634.97;10592314;28;20048;-53
2021/03/30 02:45:36;;;;;;;15.93;6.18;;;;;;;2.12;38.94;100633.25;10586473;28;20109;-53
2021/03/30 02:50:40;;;;;;;14.30;6.03;;;;;;;2.10;38.61;100628.16;10586793;28;20066;-55
2021/03/30 02:55:44;;;;;;;13.57;5.57;;;;;;;2.09;38.73;100626.44;10585800;28;20515;-51
2021/03/30 03:00:47;;;;;;;12.82;5.85;;;;;;;2.06;39.03;100624.81;10584107;28;20058;-50
2021/03/30 03:05:48;;;;;;;13.82;6.47;;;;;;;2.10;39.42;100628.16;10589402;28;20051;-50
2021/03/30 03:10:52;;;;;;;12.57;6.53;;;;;;;2.17;39.10;100618.41;10584808;28;20059;-52
2021/03/30 03:15:54;;;;;;;15.00;6.05;;;;;;;2.22;38.95;100613.91;10584529;28;20051;-52
2021/03/30 03:20:57;;;;;;;12.00;6.68;;;;;;;2.32;39.36;100622.19;10583215;27;20043;-51
2021/03/30 03:25:59;;;;;;;14.48;6.55;;;;;;;3.08;39.39;100614.09;10583947;28;20052;-50
2021/03/30 03:31:02;;;;;;;11.50;5.10;;;;;;;4.23;38.04;100603.19;10583626;28;20496;-57
2021/03/30 03:36:08;;;;;;;12.60;5.65;;;;;;;5.26;36.50;100594.84;10608918;28;20051;-55
2021/03/30 03:41:12;;;;;;;11.27;5.00;;;;;;;6.25;35.20;100582.06;10628509;27;20081;-55
2021/03/30 03:46:16;;;;;;;12.02;5.47;;;;;;;6.96;34.04;100582.53;10627374;28;20498;-54
2021/03/30 03:51:18;;;;;;;14.73;5.25;;;;;;;7.69;33.19;100581.81;10626459;28;20078;-51
2021/03/30 03:56:26;;;;;;;10.98;4.28;;;;;;;8.43;31.38;100592.16;10626460;27;20039;-52
2021/03/30 04:01:37;;;;;;;13.50;4.60;;;;;;;8.52;31.05;100585.50;10626519;27;20050;-52
2021/03/30 04:06:47;;;;;;;9.13;4.40;;;;;;;9.33;30.20;100582.94;10626066;28;20053;-53
2021/03/30 04:11:50;;;;;;;10.73;3.60;;;;;;;10.04;29.22;100589.50;10626672;28;20108;-54
2021/03/30 04:16:53;;;;;;;10.07;5.07;;;;;;;11.21;28.51;100597.88;10625894;27;20153;-54
2021/03/30 04:21:55;;;;;;;9.10;3.93;;;;;;;12.06;27.00;100591.53;10625294;28;20055;-52
2021/03/30 04:26:56;;;;;;;9.32;4.63;;;;;;;13.12;26.25;100602.44;10624245;27;20109;-54
2021/03/30 04:31:59;;;;;;;9.57;4.03;;;;;;;14.55;24.87;100591.25;10623632;27;20047;-52
2021/03/30 04:37:00;;;;;;;8.05;4.20;;;;;;;15.96;23.35;100573.19;10621409;27;20055;-55
2021/03/30 04:42:02;;;;;;;10.68;4.35;;;;;;;17.29;22.29;100583.34;10627365;27;20050;-55
2021/03/30 04:47:05;;;;;;;9.52;4.10;;;;;;;18.71;20.34;100583.88;10641772;28;20104;-53
2021/03/30 04:52:07;;;;;;;9.52;3.63;;;;;;;19.85;19.41;100574.34;10630275;27;20172;-53
2021/03/30 04:57:09;;;;;;;8.00;3.65;;;;;;;20.90;18.72;100570.44;10632947;27;20054;-57
2021/03/30 05:02:12;;;;;;;13.27;3.85;;;;;;;22.11;17.40;100583.97;10638091;27;20069;-53
2021/03/30 05:07:13;;;;;;;7.65;2.88;;;;;;;21.88;16.04;100582.19;10631237;27;20471;-53
2021/03/30 05:12:15;;;;;;;6.80;3.22;;;;;;;19.35;16.98;100583.34;10630536;27;20051;-53
2021/03/30 05:17:17;;;;;;;8.65;3.67;;;;;;;17.86;17.77;100575.84;10630982;27;20039;-53
2021/03/30 05:22:20;;;;;;;6.90;3.28;;;;;;;17.21;18.12;100564.66;10630491;27;20058;-56
2021/03/30 05:27:22;;;;;;;8.40;3.03;;;;;;;17.35;18.00;100558.81;10629666;27;20051;-53
2021/03/30 05:32:24;;;;;;;8.02;2.95;;;;;;;18.27;17.33;100549.44;10629980;27;20054;-53
2021/03/30 05:37:26;;;;;;;6.60;3.50;;;;;;;20.42;16.65;100539.47;10630014;27;20050;-53
2021/03/30 05:42:28;;;;;;;10.45;3.47;;;;;;;21.88;14.88;100542.03;10629895;27;20384;-53
2021/03/30 05:47:30;;;;;;;7.65;3.38;;;;;;;22.38;14.78;100542.31;10632313;27;20100;-53
2021/03/30 05:52:43;;;;;;;9.40;3.38;;;;;;;22.49;14.12;100539.16;10634462;27;20383;-54
2021/03/30 05:57:46;;;;;;;8.03;3.77;;;;;;;21.68;14.34;100538.25;10630525;27;20055;-52
2021/03/30 06:02:52;;;;;;;8.82;3.38;;;;;;;21.62;14.54;100536.31;10628830;27;20172;-53
2021/03/30 06:07:55;;;;;;;9.35;3.45;;;;;;;22.04;14.32;100541.88;10628381;27;20047;-53
2021/03/30 06:12:57;;;;;;;11.10;3.20;;;;;;;23.04;13.42;100536.91;10632052;27;20047;-54
2021/03/30 06:18:01;;;;;;;7.43;3.22;;;;;;;23.09;13.14;100539.81;10630268;27;20039;-55
2021/03/30 06:23:05;;;;;;;12.57;3.30;;;;;;;23.15;13.34;100515.75;10634595;27;20484;-53
2021/03/30 06:28:11;;;;;;;9.98;3.40;;;;;;;22.93;12.99;100511.38;10627816;27;20051;-55
2021/03/30 06:33:19;;;;;;;10.23;3.78;;;;;;;23.02;13.39;100517.47;10628470;27;20051;-53
2021/03/30 06:38:20;;;;;;;13.73;3.65;;;;;;;23.40;13.32;100507.28;10626919;27;20130;-54
2021/03/30 06:48:52;;;;;;;7.43;3.25;;;;;;;23.72;12.67;100502.38;10582480;27;20070;-53
2021/03/30 06:53:54;;;;;;;13.02;3.50;;;;;;;22.82;12.64;100509.22;10633676;27;20051;-55
2021/03/30 06:58:57;;;;;;;10.82;3.83;;;;;;;22.47;12.92;100512.53;10634424;27;20043;-54
2021/03/30 07:04:00;;;;;;;8.43;2.85;;;;;;;23.31;13.02;100501.25;10626649;27;20043;-54
2021/03/30 07:09:02;;;;;;;9.75;3.30;;;;;;;23.98;12.07;100507.88;10626588;27;20039;-53
2021/03/30 07:14:04;;;;;;;;;;;;;;;24.86;12.37;100507.19;10626923;27;20054;-54
2021/03/30 07:19:09;;;;;;;8.00;2.92;;;;;;;27.11;10.93;100507.56;10626140;27;19934;-54
2021/03/30 07:24:35;;;;;;;9.30;3.35;;;;;;;29.13;9.42;100504.81;10625330;27;20059;-53
2021/03/30 07:29:43;;;;;;;8.43;3.50;;;;;;;31.05;8.35;100485.72;10626468;27;20135;-54
2021/03/30 07:34:59;;;;;;;9.40;3.20;;;;;;;31.30;7.86;100477.16;10626827;27;20074;-54
2021/03/30 07:40:03;;;;;;;9.65;3.30;;;;;;;31.05;7.98;100483.00;10624379;28;20085;-54
2021/03/30 07:45:06;;;;;;;7.82;3.33;;;;;;;31.35;8.03;100471.84;10625919;28;20111;-55
2021/03/30 07:50:11;;;;;;;9.63;3.05;;;;;;;31.12;7.70;100486.38;10634585;27;20075;-54
2021/03/30 07:55:17;;;;;;;10.85;3.05;;;;;;;31.22;8.01;100466.69;10626241;27;20051;-55
2021/03/30 08:00:47;;;;;;;6.45;2.72;;;;;;;31.38;7.42;100461.28;10625146;28;20054;-54
2021/03/30 08:06:19;;;;;;;7.70;2.65;;;;;;;32.98;6.83;100453.84;10631751;27;20079;-56
2021/03/30 08:11:49;;;;;;;12.98;2.95;;;;;;;32.52;6.49;100459.69;10634993;27;20078;-55
2021/03/30 08:16:52;;;;;;;8.73;2.65;;;;;;;31.08;7.19;100442.59;10626383;27;20057;-54
2021/03/30 08:21:56;;;;;;;11.25;3.13;;;;;;;30.76;7.80;100446.94;10625951;27;20043;-56
2021/03/30 08:26:58;;;;;;;6.70;2.40;;;;;;;31.61;6.79;100446.63;10631852;27;20123;-54
2021/03/30 08:32:01;;;;;;;14.27;2.75;;;;;;;30.13;7.36;100418.94;10634020;27;20047;-54
2021/03/30 08:37:09;;;;;;;8.23;2.50;;;;;;;29.69;7.59;100426.75;10632606;27;20057;-53
2021/03/30 08:42:13;;;;;;;10.32;3.03;;;;;;;29.78;7.70;100428.84;10633899;27;20073;-56
2021/03/30 08:47:30;;;;;;;6.15;1.88;;;;;;;29.02;7.58;100427.94;10632050;27;20054;-54
2021/03/30 08:52:32;;;;;;;5.53;1.90;;;;;;;26.91;8.54;100418.69;10631964;27;20081;-54
2021/03/30 08:57:36;;;;;;;6.53;2.03;;;;;;;27.19;8.79;100412.88;10633062;27;20487;-55
2021/03/30 09:02:37;;;;;;;5.63;2.53;;;;;;;26.68;8.89;100405.81;10632594;27;20055;-54
2021/03/30 09:07:43;;;;;;;4.70;2.10;;;;;;;27.28;8.50;100403.44;10635163;27;20057;-53
2021/03/30 09:12:46;;;;;;;6.18;2.05;;;;;;;28.51;8.13;100399.63;10667273;27;20104;-55
2021/03/30 09:17:55;;;;;;;6.07;2.00;;;;;;;30.36;7.30;100394.47;10665294;27;20082;-54
2021/03/30 09:23:01;;;;;;;6.05;2.25;;;;;;;30.55;7.15;100367.91;10633813;27;20243;-54
2021/03/30 09:28:04;;;;;;;8.15;2.00;;;;;;;31.16;6.76;100374.31;10630579;27;20066;-55
2021/03/30 09:33:06;;;;;;;;;;;;;;;30.57;6.67;100376.63;10639429;27;20051;-55
2021/03/30 09:38:09;;;;;;;5.25;1.80;;;;;;;29.03;7.12;100377.34;10630216;27;19938;-54
2021/03/30 09:43:13;;;;;;;8.05;1.73;;;;;;;27.71;7.72;100378.22;10629171;27;20047;-54
2021/03/30 09:48:17;;;;;;;6.75;1.92;;;;;;;26.21;8.55;100373.75;10630787;27;20495;-54
2021/03/30 09:53:20;;;;;;;7.07;2.10;;;;;;;24.14;9.79;100364.38;10629175;27;20130;-54
2021/03/30 09:58:23;;;;;;;6.78;1.90;;;;;;;21.85;11.20;100360.41;10630211;27;20096;-53
2021/03/30 10:03:25;;;;;;;6.45;2.20;;;;;;;20.04;12.43;100347.09;10632106;27;20039;-53
2021/03/30 10:08:29;;;;;;;8.17;2.00;;;;;;;18.20;13.72;100340.88;10631774;27;20050;-55
2021/03/30 10:13:33;;;;;;;4.90;2.30;;;;;;;17.10;14.81;100344.44;10629661;27;20292;-53
2021/03/30 10:18:36;;;;;;;5.32;2.03;;;;;;;16.34;15.78;100327.25;10627778;27;20341;-52
2021/03/30 10:23:42;;;;;;;3.20;1.13;;;;;;;16.23;15.58;100336.28;10627600;27;20055;-52
2021/03/30 10:28:52;;;;;;;8.00;2.03;;;;;;;15.92;15.96;100309.31;10627717;27;20047;-53
2021/03/30 10:33:55;;;;;;;8.00;2.22;;;;;;;15.93;16.50;100310.97;10627483;27;20134;-53
2021/03/30 10:39:08;;;;;;;5.13;2.05;;;;;;;15.47;16.59;100302.16;10627629;27;20057;-53
2021/03/30 10:44:17;;;;;;;6.47;2.35;;;;;;;15.10;16.73;100299.53;10630559;27;20070;-53
2021/03/30 10:49:18;;;;;;;7.53;1.75;;;;;;;14.84;17.51;100297.53;10629002;27;20133;-53
2021/03/30 10:54:21;;;;;;;6.13;1.60;;;;;;;14.47;18.24;100292.97;10627402;27;20047;-53
2021/03/30 10:59:25;;;;;;;6.30;2.10;;;;;;;14.37;18.36;100270.97;10626750;27;20046;-53
2021/03/30 11:04:27;;;;;;;5.82;2.08;;;;;;;14.45;18.68;100278.22;10629873;27;20051;-56
2021/03/30 11:09:29;;;;;;;6.93;2.22;;;;;;;14.00;19.12;100268.22;10625816;27;20100;-53
2021/03/30 11:14:31;;;;;;;9.40;2.67;;;;;;;14.06;19.07;100262.38;10625552;27;20047;-54
2021/03/30 11:19:33;;;;;;;8.57;2.70;;;;;;;14.24;18.91;100250.13;10626206;27;20459;-53
2021/03/30 11:24:41;;;;;;;9.35;2.60;;;;;;;14.28;19.21;100242.72;10626587;27;20079;-53
2021/03/30 11:29:44;;;;;;;6.93;2.45;;;;;;;14.16;18.95;100230.63;10626297;27;20527;-53
2021/03/30 11:34:49;;;;;;;9.00;2.55;;;;;;;14.24;19.46;100221.03;10631508;27;20503;-53
2021/03/30 11:39:52;;;;;;;6.47;2.25;;;;;;;14.43;18.91;100217.50;10628995;27;20046;-53
2021/03/30 11:44:53;;;;;;;7.93;2.13;;;;;;;14.30;19.32;100210.88;10625480;27;20051;-53
2021/03/30 11:49:55;;;;;;;6.30;2.17;;;;;;;14.35;19.31;100188.31;10626219;27;20043;-52
2021/03/30 11:54:58;;;;;;;6.05;2.17;;;;;;;13.81;19.55;100198.53;10625199;28;20509;-52
2021/03/30 12:00:00;;;;;;;5.30;1.73;;;;;;;13.61;19.32;100188.09;10629726;27;20548;-53
2021/03/30 12:05:02;;;;;;;4.50;2.33;;;;;;;13.46;19.72;100179.75;10634869;27;20456;-53
2021/03/30 12:10:07;;;;;;;10.40;2.55;;;;;;;13.48;19.71;100167.22;10638331;27;20141;-53
2021/03/30 12:15:11;;;;;;;7.10;2.25;;;;;;;13.34;20.05;100171.13;10633952;27;20483;-53
2021/03/30 12:20:15;;;;;;;5.18;2.20;;;;;;;13.45;19.58;100165.69;10645287;27;20053;-55
2021/03/30 12:25:18;;;;;;;8.13;1.90;;;;;;;13.38;19.66;100167.22;10643295;27;20073;-55
2021/03/30 12:30:20;;;;;;;6.95;2.17;;;;;;;13.03;19.96;100152.69;10632780;27;20058;-54
2021/03/30 12:35:22;;;;;;;9.80;2.60;;;;;;;12.98;20.05;100149.63;10632275;27;20047;-55
2021/03/30 12:40:25;;;;;;;5.10;2.17;;;;;;;12.92;20.16;100133.50;10632566;27;20039;-52
2021/03/30 12:45:27;;;;;;;5.20;2.00;;;;;;;12.88;20.21;100112.66;10631917;27;20544;-52
2021/03/30 12:50:29;;;;;;;6.70;1.75;;;;;;;12.72;20.30;100117.63;10631775;27;20074;-52
2021/03/30 12:55:32;;;;;;;4.53;2.05;;;;;;;12.61;20.29;100110.63;10631223;27;20058;-53
2021/03/30 13:00:35;;;;;;;8.32;1.95;;;;;;;12.51;20.62;100099.22;10631901;27;20353;-52
2021/03/30 13:05:36;;;;;;;7.87;2.40;;;;;;;12.55;20.58;100083.97;10637197;27;20055;-53
2021/03/30 13:10:39;;;;;;;9.82;2.50;;;;;;;12.62;20.51;100079.81;10629667;27;20300;-55
2021/03/30 13:15:40;;;;;;;5.20;2.10;;;;;;;12.38;20.89;100073.09;10630831;27;20168;-55
2021/03/30 13:20:42;;;;;;;5.75;2.08;;;;;;;12.39;21.20;100060.75;10631681;27;20057;-54
2021/03/30 13:25:45;;;;;;;5.90;2.28;;;;;;;12.33;21.29;100059.47;10630861;27;20439;-53
2021/03/30 13:30:47;;;;;;;8.13;2.25;;;;;;;12.39;21.38;100064.22;10630810;27;20047;-55
2021/03/30 13:35:49;;;;;;;8.98;2.30;;;;;;;12.12;22.01;100058.69;10630388;27;20043;-53
2021/03/30 13:40:52;;;;;;;7.75;2.80;;;;;;;11.93;22.21;100049.72;10630608;27;20051;-53
2021/03/30 13:45:53;;;;;;;6.07;2.00;;;;;;;11.73;22.38;100051.41;10630940;27;20074;-53
2021/03/30 13:50:55;;;;;;;5.30;1.98;;;;;;;11.57;22.65;100047.53;10630032;27;20053;-52
2021/03/30 13:55:58;;;;;;;9.23;2.38;;;;;;;11.49;22.98;100032.41;10631560;27;20051;-52
2021/03/30 14:01:00;;;;;;;5.43;2.30;;;;;;;11.34;23.50;100031.88;10630576;27;20055;-53
2021/03/30 14:06:02;;;;;;;6.90;2.22;;;;;;;11.31;23.29;100015.50;10630937;27;20546;-52
2021/03/30 14:11:04;;;;;;;8.20;2.63;;;;;;;11.20;23.26;100029.53;10630509;27;20165;-53
2021/03/30 14:16:12;;;;;;;6.82;2.05;;;;;;;11.20;23.53;100021.63;10630981;27;20057;-52
2021/03/30 14:21:16;;;;;;;9.38;2.65;;;;;;;11.17;23.72;100006.09;10632257;27;20495;-54
2021/03/30 14:26:22;;;;;;;6.63;1.95;;;;;;;11.10;23.92;100015.47;10630750;27;20066;-52
2021/03/30 14:31:24;;;;;;;8.45;2.42;;;;;;;10.94;24.33;100003.59;10630201;27;20375;-52
2021/03/30 14:36:27;;;;;;;4.88;2.40;;;;;;;10.82;24.28;100008.03;10629137;27;20065;-56
2021/03/30 14:41:34;;;;;;;6.47;2.28;;;;;;;10.79;24.70;99996.94;10634992;27;20043;-55
2021/03/30 14:52:00;;;;;;;5.32;2.03;;;;;;;10.52;25.19;99992.94;10635736;27;20466;-53
2021/03/30 14:57:06;;;;;;;7.20;2.50;;;;;;;10.41;25.40;99982.47;10632717;27;20503;-53
2021/03/30 15:02:30;;;;;;;9.80;2.45;;;;;;;10.32;25.82;99972.69;10632992;27;20239;-53
2021/03/30 15:07:32;;;;;;;6.10;2.65;;;;;;;10.20;26.11;99963.13;10630010;27;20043;-53
2021/03/30 15:12:34;;;;;;;6.60;2.20;;;;;;;10.09;26.29;99963.97;10630118;27;20043;-55
2021/03/30 15:17:36;;;;;;;9.93;2.95;;;;;;;10.06;26.53;99964.22;10627425;27;20080;-54
2021/03/30 15:22:38;;;;;;;5.93;2.65;;;;;;;10.03;26.79;99967.91;10627963;27;20047;-54
2021/03/30 15:27:40;;;;;;;6.05;2.38;;;;;;;9.87;27.23;99957.78;10629566;27;20055;-52
2021/03/30 15:32:43;;;;;;;7.57;2.55;;;;;;;9.75;27.58;99950.84;10634911;27;20050;-56
2021/03/30 15:37:45;;;;;;;7.15;2.63;;;;;;;9.71;27.89;99943.34;10627591;27;20051;-52
2021/03/30 15:42:48;;;;;;;5.45;2.85;;;;;;;9.61;28.21;99940.59;10625092;27;20070;-53
2021/03/30 15:47:49;;;;;;;6.85;2.67;;;;;;;9.44;30.43;99937.47;10627213;28;20054;-53
2021/03/30 15:52:52;;;;;;;6.50;3.00;;;;;;;9.27;30.59;99931.84;10627228;27;20051;-53
2021/03/30 15:57:54;;;;;;;7.97;2.63;;;;;;;9.10;31.56;99915.59;10628199;27;20043;-53
2021/03/30 16:02:57;;;;;;;6.63;2.60;;;;;;;8.95;31.99;99906.28;10628647;28;20069;-58
2021/03/30 16:07:59;;;;;;;7.60;3.20;;;;;;;8.91;32.74;99913.53;10628538;28;20071;-54
2021/03/30 16:13:02;;;;;;;7.72;3.15;;;;;;;8.82;33.32;99900.28;10626974;27;20043;-53
2021/03/30 16:18:04;;;;;;;9.27;3.00;;;;;;;8.81;33.55;99893.38;10627431;28;20050;-55
2021/03/30 16:23:08;;;;;;;7.68;3.15;;;;;;;8.79;33.60;99882.16;10627430;27;20054;-53
2021/03/30 16:28:10;;;;;;;7.18;3.08;;;;;;;8.75;33.67;99869.28;10626169;28;20057;-54
2021/03/30 16:33:13;;;;;;;8.30;3.10;;;;;;;8.71;34.04;99873.09;10625040;27;20046;-53
2021/03/30 16:38:15;;;;;;;9.18;3.35;;;;;;;8.65;34.33;99867.44;10625813;28;20173;-52
2021/03/30 16:43:17;;;;;;;7.40;3.42;;;;;;;8.61;34.41;99877.34;10621501;27;20480;-52
2021/03/30 16:48:19;;;;;;;9.27;3.65;;;;;;;8.42;35.78;99871.78;10629778;27;20051;-52
2021/03/30 16:53:20;;;;;;;15.23;3.33;;;;;;;8.20;37.43;99857.63;10634666;27;20133;-52
2021/03/30 16:58:23;;;;;;;7.70;3.35;;;;;;;8.16;37.31;99852.69;10632705;27;20108;-55
2021/03/30 17:03:24;;;;;;;9.50;4.30;;;;;;;8.03;38.59;99850.13;10634165;27;20050;-54
2021/03/30 17:08:28;;;;;;;8.52;3.70;;;;;;;7.89;39.69;99839.84;10632248;27;20502;-54
2021/03/30 17:13:31;;;;;;;8.25;3.65;;;;;;;7.75;40.70;99846.03;10631096;27;20084;-53
2021/03/30 17:18:33;;;;;;;9.02;4.40;;;;;;;7.59;41.57;99822.75;10631708;27;20506;-54
2021/03/30 17:23:36;;;;;;;8.75;4.85;;;;;;;7.48;42.99;99822.66;10631515;27;20061;-51
2021/03/30 17:28:39;;;;;;;10.00;4.70;;;;;;;7.34;43.65;99821.88;10631069;27;20154;-52
2021/03/30 17:33:41;;;;;;;9.75;4.20;;;;;;;7.31;44.04;99802.94;10634694;27;20046;-54
2021/03/30 17:38:42;;;;;;;7.47;4.35;;;;;;;7.15;44.94;99804.00;10633335;27;20035;-52
2021/03/30 17:43:45;;;;;;;8.50;4.85;;;;;;;7.10;45.51;99800.03;10630424;27;20364;-53
2021/03/30 17:48:47;;;;;;;8.88;4.97;;;;;;;7.00;46.51;99807.69;10629760;27;20058;-58
2021/03/30 17:53:48;;;;;;;9.02;5.13;;;;;;;6.88;46.95;99798.91;10632808;27;20078;-54
2021/03/30 17:58:51;;;;;;;9.68;5.45;;;;;;;6.81;47.65;99797.66;10632077;27;20050;-52
2021/03/30 18:03:52;;;;;;;10.65;4.97;;;;;;;6.60;48.50;99801.72;10637986;27;20096;-52
2021/03/30 18:08:54;;;;;;;8.88;4.97;;;;;;;6.49;49.10;99780.69;10632411;27;20502;-53
2021/03/30 18:13:57;;;;;;;12.80;6.30;;;;;;;6.25;50.80;99776.19;10629948;27;20059;-55
2021/03/30 18:18:58;;;;;;;12.18;6.20;;;;;;;6.23;51.11;99784.09;10630773;27;20429;-53
2021/03/30 18:24:00;;;;;;;11.00;6.40;;;;;;;6.19;51.22;99769.59;10633033;27;20112;-52
2021/03/30 18:29:03;;;;;;;15.93;6.68;;;;;;;6.19;51.37;99759.16;10629774;27;20383;-52
2021/03/30 18:34:05;;;;;;;10.55;5.90;;;;;;;6.16;51.52;99751.53;10629475;27;20051;-52
2021/03/30 18:39:07;;;;;;;9.48;5.63;;;;;;;6.01;52.18;99749.91;10628385;27;20043;-54
2021/03/30 18:44:10;;;;;;;11.63;6.20;;;;;;;5.72;53.66;99749.16;10629108;27;20066;-51
2021/03/30 18:49:12;;;;;;;10.65;6.45;;;;;;;5.46;54.93;99737.78;10628945;27;20046;-53
2021/03/30 18:54:17;;;;;;;12.05;7.18;;;;;;;5.26;55.43;99737.25;10628320;27;20417;-55
2021/03/30 18:59:25;;;;;;;15.38;7.65;;;;;;;5.09;56.54;99719.25;10629263;27;20054;-52
2021/03/30 19:04:26;;;;;;;15.07;8.10;;;;;;;4.99;56.90;99719.00;10628935;27;20054;-52
2021/03/30 19:09:28;;;;;;;16.00;7.80;;;;;;;4.95;56.80;99714.88;10628053;27;20185;-51
2021/03/30 19:14:31;;;;;;;14.65;7.93;;;;;;;4.86;57.29;99707.63;10627927;27;20490;-54
2021/03/30 19:19:32;;;;;;;12.75;7.00;;;;;;;4.71;57.49;99696.41;10629168;27;20043;-51
2021/03/30 19:24:34;;;;;;;15.55;8.52;;;;;;;4.51;58.35;99694.16;10629830;27;20402;-52
2021/03/30 19:29:42;;;;;;;13.70;8.35;;;;;;;4.41;59.56;99680.88;10629019;27;20049;-53
2021/03/30 19:34:47;;;;;;;13.35;7.78;;;;;;;4.38;62.18;99681.06;10629029;27;20051;-51
2021/03/30 19:39:48;;;;;;;13.57;8.07;;;;;;;4.25;63.89;99664.47;10627005;27;20043;-50
2021/03/30 19:44:51;;;;;;;15.18;9.13;;;;;;;4.09;65.34;99660.19;10627051;28;20157;-51
2021/03/30 19:49:59;;;;;;;17.60;10.07;;;;;;;4.10;65.84;99640.25;10629095;27;20146;-53
2021/03/30 19:55:01;;;;;;;16.20;8.90;;;;;;;4.00;67.00;99639.91;10628743;27;20057;-51
2021/03/30 20:00:06;;;;;;;14.73;10.30;;;;;;;3.93;67.60;99625.63;10628618;28;20476;-53
2021/03/30 20:05:10;;;;;;;16.40;10.20;;;;;;;3.91;68.20;99624.88;10627418;27;20396;-52
2021/03/30 20:10:14;;;;;;;18.13;10.63;;;;;;;3.86;69.15;99616.50;10625478;27;20043;-53
2021/03/30 20:15:17;;;;;;;17.58;10.18;;;;;;;3.76;69.34;99605.00;10625373;28;20055;-54
2021/03/30 20:20:20;;;;;;;17.05;9.77;;;;;;;3.78;70.10;99606.53;10629597;27;20075;-52
2021/03/30 20:25:25;;;;;;;17.40;10.23;;;;;;;3.75;70.33;99583.31;10634278;27;20081;-55
2021/03/30 20:30:28;;;;;;;17.33;11.13;;;;;;;3.73;70.63;99576.56;10634819;27;20069;-52
2021/03/30 20:35:31;;;;;;;19.50;12.00;;;;;;;3.66;71.05;99574.34;10636151;27;20069;-53
2021/03/30 20:40:34;;;;;;;20.63;12.15;;;;;;;3.69;71.12;99573.28;10639615;27;20376;-52
2021/03/30 20:45:36;;;;;;;18.88;11.90;;;;;;;3.64;71.38;99563.19;10635420;27;20049;-51
2021/03/30 20:50:38;;;;;;;21.23;12.05;;;;;;;3.61;72.07;99552.97;10634432;27;20384;-57
2021/03/30 20:55:40;;;;;;;21.67;12.73;;;;;;;3.61;72.24;99539.13;10632129;27;20116;-54
2021/03/30 21:00:42;;;;;;;19.48;12.15;;;;;;;3.62;72.37;99541.63;10634394;27;20195;-53
2021/03/30 21:05:44;;;;;;;20.75;11.75;;;;;;;3.64;72.21;99528.56;10632427;27;20047;-52
2021/03/30 21:10:45;;;;;;;20.98;12.05;;;;;;;3.69;72.42;99519.56;10632512;27;20054;-52
2021/03/30 21:15:48;;;;;;;19.40;12.00;;;;;;;3.74;72.57;99500.22;10632055;27;20145;-52
2021/03/30 21:20:50;;;;;;;19.17;12.53;;;;;;;3.73;72.69;99508.97;10632437;27;20054;-52
2021/03/30 21:25:52;;;;;;;22.85;13.20;;;;;;;3.73;72.47;99498.56;10631153;27;20047;-51
2021/03/30 21:30:54;;;;;;;19.48;10.55;;;;;;;3.71;72.78;99483.06;10631176;27;20043;-53
2021/03/30 21:35:57;;;;;;;16.15;10.35;;;;;;;3.65;72.57;99470.41;10631854;27;20061;-55
2021/03/30 21:40:59;;;;;;;21.65;12.30;;;;;;;3.64;72.82;99467.00;10634353;27;20112;-53
2021/03/30 21:46:02;;;;;;;23.80;11.83;;;;;;;3.61;73.13;99438.59;10634958;27;20135;-52
2021/03/30 21:51:05;;;;;;;20.55;11.57;;;;;;;3.64;73.23;99456.59;10630524;27;20069;-52
2021/03/30 21:56:07;;;;;;;22.95;11.48;;;;;;;3.63;72.95;99436.75;10630511;27;20103;-55
2021/03/30 22:01:09;;;;;;;20.35;11.82;;;;;;;3.65;73.42;99431.44;10630495;27;20497;-54
2021/03/30 22:06:11;;;;;;;21.48;13.63;;;;;;;3.67;73.44;99409.63;10630152;27;20051;-53
2021/03/30 22:11:13;;;;;;;23.15;13.57;;;;;;;3.68;73.25;99407.84;10629680;27;20039;-53
2021/03/30 22:16:15;;;;;;;21.67;12.50;;;;;;;3.71;73.73;99409.44;10633655;27;20051;-50
2021/03/30 22:21:17;;;;;;;20.55;12.02;;;;;;;3.76;73.71;99404.78;10630831;27;20039;-54
2021/03/30 22:26:20;;;;;;;20.50;11.23;;;;;;;3.77;73.45;99396.06;10627808;27;20150;-56
2021/03/30 22:31:23;;;;;;;18.45;11.40;;;;;;;3.79;73.41;99386.41;10629561;27;20039;-55
2021/03/30 22:36:25;;;;;;;18.50;11.57;;;;;;;3.82;73.37;99389.63;10629058;27;20103;-52
2021/03/30 22:41:27;;;;;;;21.77;12.80;;;;;;;3.85;73.69;99371.25;10627986;27;20039;-55
2021/03/30 22:46:30;;;;;;;24.30;13.03;;;;;;;3.90;73.75;99363.13;10628139;27;20047;-55
2021/03/30 22:51:33;;;;;;;21.13;12.87;;;;;;;3.87;73.32;99358.13;10628190;27;20046;-53
2021/03/30 22:56:34;;;;;;;22.27;12.55;;;;;;;3.89;73.67;99349.31;10627521;27;20066;-53
2021/03/30 23:01:37;;;;;;;22.98;12.68;;;;;;;3.82;73.90;99348.03;10628177;27;20110;-55
2021/03/30 23:06:38;;;;;;;25.30;12.88;;;;;;;3.85;73.57;99334.84;10627393;27;20059;-59
2021/03/30 23:11:40;;;;;;;22.58;12.82;;;;;;;3.80;73.97;99334.28;10629315;27;20395;-52
2021/03/30 23:16:42;;;;;;;22.52;12.68;;;;;;;3.83;73.51;99322.88;10628444;27;20051;-55
2021/03/30 23:21:44;;;;;;;18.70;10.30;;;;;;;3.89;73.61;99305.09;10623383;27;20046;-54
2021/03/30 23:26:46;;;;;;;17.00;9.45;;;;;;;3.93;73.50;99321.34;10628866;27;20058;-53
2021/03/30 23:31:48;;;;;;;20.05;11.73;;;;;;;3.91;74.00;99303.25;10628734;27;20376;-51
2021/03/30 23:36:50;;;;;;;22.77;12.63;;;;;;;3.94;73.50;99302.19;10627640;27;20050;-55